sensor_id;sensor_type;location;lat;lon;timestamp;temperature;humidity
47338;DHT22;33069;51.970;5.892;2023-04-06T00:01:46;4.90;66.70
47338;DHT22;33069;51.970;5.892;2023-04-06T00:04:12;4.80;65.60
47338;DHT22;33069;51.970;5.892;2023-04-06T00:06:38;4.80;66.00
47338;DHT22;33069;51.970;5.892;2023-04-06T00:09:03;4.70;65.30
47338;DHT22;33069;51.970;5.892;2023-04-06T00:11:29;5.00;65.40
47338;DHT22;33069;51.970;5.892;2023-04-06T00:13:55;5.00;64.40
47338;DHT22;33069;51.970;5.892;2023-04-06T00:16:21;5.00;64.60
47338;DHT22;33069;51.970;5.892;2023-04-06T00:18:46;4.80;64.80
47338;DHT22;33069;51.970;5.892;2023-04-06T00:21:13;4.90;65.70
47338;DHT22;33069;51.970;5.892;2023-04-06T00:23:40;5.00;65.80
47338;DHT22;33069;51.970;5.892;2023-04-06T00:26:06;5.10;65.30
47338;DHT22;33069;51.970;5.892;2023-04-06T00:28:31;5.10;64.90
47338;DHT22;33069;51.970;5.892;2023-04-06T00:30:57;5.10;65.30
47338;DHT22;33069;51.970;5.892;2023-04-06T00:33:23;5.00;65.50
47338;DHT22;33069;51.970;5.892;2023-04-06T00:35:50;5.00;66.00
47338;DHT22;33069;51.970;5.892;2023-04-06T00:38:16;5.00;66.10
47338;DHT22;33069;51.970;5.892;2023-04-06T00:40:43;4.90;65.80
47338;DHT22;33069;51.970;5.892;2023-04-06T00:43:11;4.90;66.30
47338;DHT22;33069;51.970;5.892;2023-04-06T00:45:41;5.10;66.20
47338;DHT22;33069;51.970;5.892;2023-04-06T00:48:08;4.90;66.80
47338;DHT22;33069;51.970;5.892;2023-04-06T00:50:34;5.00;67.50
47338;DHT22;33069;51.970;5.892;2023-04-06T00:53:00;4.80;67.50
47338;DHT22;33069;51.970;5.892;2023-04-06T00:55:27;4.70;67.60
47338;DHT22;33069;51.970;5.892;2023-04-06T00:57:53;4.70;67.70
47338;DHT22;33069;51.970;5.892;2023-04-06T01:00:19;4.50;68.00
47338;DHT22;33069;51.970;5.892;2023-04-06T01:02:45;4.60;68.50
47338;DHT22;33069;51.970;5.892;2023-04-06T01:05:11;4.60;67.90
47338;DHT22;33069;51.970;5.892;2023-04-06T01:07:37;4.40;67.80
47338;DHT22;33069;51.970;5.892;2023-04-06T01:10:03;4.30;68.20
47338;DHT22;33069;51.970;5.892;2023-04-06T01:12:29;4.40;68.30
47338;DHT22;33069;51.970;5.892;2023-04-06T01:14:55;4.40;67.80
47338;DHT22;33069;51.970;5.892;2023-04-06T01:17:21;4.40;68.20
47338;DHT22;33069;51.970;5.892;2023-04-06T01:19:47;4.40;68.10
47338;DHT22;33069;51.970;5.892;2023-04-06T01:22:18;4.50;68.00
47338;DHT22;33069;51.970;5.892;2023-04-06T01:24:44;4.30;67.50
47338;DHT22;33069;51.970;5.892;2023-04-06T01:27:10;4.40;67.30
47338;DHT22;33069;51.970;5.892;2023-04-06T01:29:36;4.30;67.30
47338;DHT22;33069;51.970;5.892;2023-04-06T01:32:02;4.50;67.50
47338;DHT22;33069;51.970;5.892;2023-04-06T01:34:28;4.40;67.50
47338;DHT22;33069;51.970;5.892;2023-04-06T01:36:54;4.40;67.70
47338;DHT22;33069;51.970;5.892;2023-04-06T01:39:20;4.40;67.50
47338;DHT22;33069;51.970;5.892;2023-04-06T01:41:45;4.40;67.20
47338;DHT22;33069;51.970;5.892;2023-04-06T01:44:18;4.30;67.70
47338;DHT22;33069;51.970;5.892;2023-04-06T01:46:46;4.20;68.50
47338;DHT22;33069;51.970;5.892;2023-04-06T01:49:12;4.30;68.80
47338;DHT22;33069;51.970;5.892;2023-04-06T01:51:38;4.30;68.20
47338;DHT22;33069;51.970;5.892;2023-04-06T01:54:05;4.30;68.10
47338;DHT22;33069;51.970;5.892;2023-04-06T01:56:30;4.30;68.10
47338;DHT22;33069;51.970;5.892;2023-04-06T01:58:56;4.40;68.00
47338;DHT22;33069;51.970;5.892;2023-04-06T02:01:22;4.30;67.50
47338;DHT22;33069;51.970;5.892;2023-04-06T02:03:48;4.30;68.10
47338;DHT22;33069;51.970;5.892;2023-04-06T02:06:13;4.30;68.40
47338;DHT22;33069;51.970;5.892;2023-04-06T02:08:39;4.40;68.40
47338;DHT22;33069;51.970;5.892;2023-04-06T02:11:05;4.30;68.30
47338;DHT22;33069;51.970;5.892;2023-04-06T02:13:31;4.20;68.40
47338;DHT22;33069;51.970;5.892;2023-04-06T02:15:57;4.30;68.90
47338;DHT22;33069;51.970;5.892;2023-04-06T02:18:22;4.20;69.00
47338;DHT22;33069;51.970;5.892;2023-04-06T02:20:48;4.40;69.10
47338;DHT22;33069;51.970;5.892;2023-04-06T02:23:14;4.30;69.30
47338;DHT22;33069;51.970;5.892;2023-04-06T02:25:40;4.30;69.70
47338;DHT22;33069;51.970;5.892;2023-04-06T02:28:06;4.20;69.90
47338;DHT22;33069;51.970;5.892;2023-04-06T02:30:32;4.10;69.70
47338;DHT22;33069;51.970;5.892;2023-04-06T02:33:02;4.10;69.80
47338;DHT22;33069;51.970;5.892;2023-04-06T02:35:28;4.00;69.70
47338;DHT22;33069;51.970;5.892;2023-04-06T02:37:54;3.90;69.60
47338;DHT22;33069;51.970;5.892;2023-04-06T02:40:20;4.00;69.90
47338;DHT22;33069;51.970;5.892;2023-04-06T02:42:46;4.10;69.40
47338;DHT22;33069;51.970;5.892;2023-04-06T02:45:11;4.10;69.60
47338;DHT22;33069;51.970;5.892;2023-04-06T02:47:37;4.00;69.10
47338;DHT22;33069;51.970;5.892;2023-04-06T02:50:03;4.10;68.90
47338;DHT22;33069;51.970;5.892;2023-04-06T02:52:29;4.10;68.30
47338;DHT22;33069;51.970;5.892;2023-04-06T02:54:54;4.20;68.80
47338;DHT22;33069;51.970;5.892;2023-04-06T02:57:20;4.30;68.00
47338;DHT22;33069;51.970;5.892;2023-04-06T02:59:46;4.40;68.10
47338;DHT22;33069;51.970;5.892;2023-04-06T03:02:12;4.40;67.30
47338;DHT22;33069;51.970;5.892;2023-04-06T03:04:37;4.20;67.10
47338;DHT22;33069;51.970;5.892;2023-04-06T03:07:03;4.30;67.30
47338;DHT22;33069;51.970;5.892;2023-04-06T03:09:29;4.40;67.40
47338;DHT22;33069;51.970;5.892;2023-04-06T03:11:55;4.20;66.50
47338;DHT22;33069;51.970;5.892;2023-04-06T03:14:21;4.20;66.90
47338;DHT22;33069;51.970;5.892;2023-04-06T03:16:48;4.30;66.90
47338;DHT22;33069;51.970;5.892;2023-04-06T03:19:14;4.20;66.90
47338;DHT22;33069;51.970;5.892;2023-04-06T03:21:39;4.50;66.70
47338;DHT22;33069;51.970;5.892;2023-04-06T03:24:06;4.40;66.30
47338;DHT22;33069;51.970;5.892;2023-04-06T03:26:31;4.30;66.80
47338;DHT22;33069;51.970;5.892;2023-04-06T03:28:57;4.30;66.60
47338;DHT22;33069;51.970;5.892;2023-04-06T03:31:23;4.30;66.80
47338;DHT22;33069;51.970;5.892;2023-04-06T03:33:48;4.40;67.10
47338;DHT22;33069;51.970;5.892;2023-04-06T03:36:14;4.40;67.20
47338;DHT22;33069;51.970;5.892;2023-04-06T03:38:40;4.00;66.90
47338;DHT22;33069;51.970;5.892;2023-04-06T03:41:06;4.10;67.50
47338;DHT22;33069;51.970;5.892;2023-04-06T03:43:31;4.00;67.10
47338;DHT22;33069;51.970;5.892;2023-04-06T03:45:57;4.10;67.00
47338;DHT22;33069;51.970;5.892;2023-04-06T03:48:23;4.30;67.00
47338;DHT22;33069;51.970;5.892;2023-04-06T03:50:48;4.20;66.60
47338;DHT22;33069;51.970;5.892;2023-04-06T03:53:14;4.30;66.70
47338;DHT22;33069;51.970;5.892;2023-04-06T03:55:40;4.50;66.20
47338;DHT22;33069;51.970;5.892;2023-04-06T03:58:06;4.20;66.40
47338;DHT22;33069;51.970;5.892;2023-04-06T04:00:32;4.20;66.70
47338;DHT22;33069;51.970;5.892;2023-04-06T04:02:58;4.30;67.10
47338;DHT22;33069;51.970;5.892;2023-04-06T04:05:24;4.20;66.80
47338;DHT22;33069;51.970;5.892;2023-04-06T04:07:51;4.30;66.90
47338;DHT22;33069;51.970;5.892;2023-04-06T04:10:29;4.10;66.70
47338;DHT22;33069;51.970;5.892;2023-04-06T04:12:56;4.00;67.30
47338;DHT22;33069;51.970;5.892;2023-04-06T04:15:21;4.20;66.90
47338;DHT22;33069;51.970;5.892;2023-04-06T04:17:47;4.00;66.90
47338;DHT22;33069;51.970;5.892;2023-04-06T04:20:15;4.00;67.30
47338;DHT22;33069;51.970;5.892;2023-04-06T04:22:42;4.10;67.30
47338;DHT22;33069;51.970;5.892;2023-04-06T04:25:08;4.20;67.70
47338;DHT22;33069;51.970;5.892;2023-04-06T04:27:34;4.20;67.30
47338;DHT22;33069;51.970;5.892;2023-04-06T04:30:01;4.10;67.70
47338;DHT22;33069;51.970;5.892;2023-04-06T04:32:26;4.00;67.60
47338;DHT22;33069;51.970;5.892;2023-04-06T04:34:55;4.20;68.20
47338;DHT22;33069;51.970;5.892;2023-04-06T04:37:21;4.00;67.90
47338;DHT22;33069;51.970;5.892;2023-04-06T04:39:47;4.00;68.20
47338;DHT22;33069;51.970;5.892;2023-04-06T04:42:13;4.20;68.60
47338;DHT22;33069;51.970;5.892;2023-04-06T04:44:38;4.20;68.00
47338;DHT22;33069;51.970;5.892;2023-04-06T04:47:05;4.10;68.20
47338;DHT22;33069;51.970;5.892;2023-04-06T04:49:31;4.20;68.30
47338;DHT22;33069;51.970;5.892;2023-04-06T04:51:56;4.30;68.50
47338;DHT22;33069;51.970;5.892;2023-04-06T04:54:22;4.40;67.70
47338;DHT22;33069;51.970;5.892;2023-04-06T04:56:48;4.50;67.40
47338;DHT22;33069;51.970;5.892;2023-04-06T04:59:13;4.20;67.70
47338;DHT22;33069;51.970;5.892;2023-04-06T05:01:39;4.30;67.70
47338;DHT22;33069;51.970;5.892;2023-04-06T05:04:05;4.20;67.50
47338;DHT22;33069;51.970;5.892;2023-04-06T05:06:31;4.10;67.40
47338;DHT22;33069;51.970;5.892;2023-04-06T05:08:56;4.20;67.60
47338;DHT22;33069;51.970;5.892;2023-04-06T05:11:22;4.30;67.10
47338;DHT22;33069;51.970;5.892;2023-04-06T05:13:48;4.40;67.00
47338;DHT22;33069;51.970;5.892;2023-04-06T05:16:14;4.30;67.00
47338;DHT22;33069;51.970;5.892;2023-04-06T05:18:39;4.40;66.80
47338;DHT22;33069;51.970;5.892;2023-04-06T05:21:05;4.30;66.40
47338;DHT22;33069;51.970;5.892;2023-04-06T05:23:31;4.30;66.40
47338;DHT22;33069;51.970;5.892;2023-04-06T05:25:57;4.40;66.00
47338;DHT22;33069;51.970;5.892;2023-04-06T05:28:23;4.30;65.80
47338;DHT22;33069;51.970;5.892;2023-04-06T05:30:48;4.30;66.00
47338;DHT22;33069;51.970;5.892;2023-04-06T05:33:14;4.50;66.30
47338;DHT22;33069;51.970;5.892;2023-04-06T05:35:40;4.50;64.90
47338;DHT22;33069;51.970;5.892;2023-04-06T05:38:08;4.50;65.50
47338;DHT22;33069;51.970;5.892;2023-04-06T05:40:36;4.60;65.10
47338;DHT22;33069;51.970;5.892;2023-04-06T05:43:03;4.40;65.60
47338;DHT22;33069;51.970;5.892;2023-04-06T05:45:29;4.60;65.70
47338;DHT22;33069;51.970;5.892;2023-04-06T05:47:55;4.50;65.40
47338;DHT22;33069;51.970;5.892;2023-04-06T05:50:21;4.40;65.60
47338;DHT22;33069;51.970;5.892;2023-04-06T05:52:47;4.60;65.60
47338;DHT22;33069;51.970;5.892;2023-04-06T05:55:13;4.80;65.70
47338;DHT22;33069;51.970;5.892;2023-04-06T05:57:39;4.90;65.30
47338;DHT22;33069;51.970;5.892;2023-04-06T06:00:06;4.70;65.00
47338;DHT22;33069;51.970;5.892;2023-04-06T06:02:34;4.90;65.30
47338;DHT22;33069;51.970;5.892;2023-04-06T06:05:00;4.70;64.90
47338;DHT22;33069;51.970;5.892;2023-04-06T06:07:25;4.70;64.50
47338;DHT22;33069;51.970;5.892;2023-04-06T06:09:51;4.90;64.70
47338;DHT22;33069;51.970;5.892;2023-04-06T06:12:17;4.90;64.60
47338;DHT22;33069;51.970;5.892;2023-04-06T06:14:43;4.90;64.80
47338;DHT22;33069;51.970;5.892;2023-04-06T06:17:09;5.00;64.90
47338;DHT22;33069;51.970;5.892;2023-04-06T06:19:34;5.20;64.10
47338;DHT22;33069;51.970;5.892;2023-04-06T06:22:00;5.20;63.70
47338;DHT22;33069;51.970;5.892;2023-04-06T06:24:28;5.30;63.60
47338;DHT22;33069;51.970;5.892;2023-04-06T06:26:54;5.40;63.40
47338;DHT22;33069;51.970;5.892;2023-04-06T06:29:19;5.60;63.30
47338;DHT22;33069;51.970;5.892;2023-04-06T06:31:45;5.70;63.00
47338;DHT22;33069;51.970;5.892;2023-04-06T06:34:11;5.70;63.30
47338;DHT22;33069;51.970;5.892;2023-04-06T06:36:38;5.80;63.10
47338;DHT22;33069;51.970;5.892;2023-04-06T06:39:04;5.80;63.20
47338;DHT22;33069;51.970;5.892;2023-04-06T06:41:29;5.80;63.00
47338;DHT22;33069;51.970;5.892;2023-04-06T06:43:55;5.90;63.50
47338;DHT22;33069;51.970;5.892;2023-04-06T06:46:21;6.10;62.80
47338;DHT22;33069;51.970;5.892;2023-04-06T06:48:47;6.20;62.90
47338;DHT22;33069;51.970;5.892;2023-04-06T06:51:12;6.60;62.20
47338;DHT22;33069;51.970;5.892;2023-04-06T06:53:38;6.60;62.00
47338;DHT22;33069;51.970;5.892;2023-04-06T06:56:04;6.70;61.80
47338;DHT22;33069;51.970;5.892;2023-04-06T06:58:30;6.70;61.20
47338;DHT22;33069;51.970;5.892;2023-04-06T07:00:56;6.80;61.60
47338;DHT22;33069;51.970;5.892;2023-04-06T07:03:22;7.00;61.60
47338;DHT22;33069;51.970;5.892;2023-04-06T07:05:49;6.90;61.30
47338;DHT22;33069;51.970;5.892;2023-04-06T07:08:19;6.80;61.60
47338;DHT22;33069;51.970;5.892;2023-04-06T07:10:44;6.90;61.30
47338;DHT22;33069;51.970;5.892;2023-04-06T07:13:10;7.00;61.10
47338;DHT22;33069;51.970;5.892;2023-04-06T07:15:49;7.10;60.30
47338;DHT22;33069;51.970;5.892;2023-04-06T07:18:34;7.10;60.10
47338;DHT22;33069;51.970;5.892;2023-04-06T07:20:59;7.10;59.80
47338;DHT22;33069;51.970;5.892;2023-04-06T07:23:25;7.10;59.90
47338;DHT22;33069;51.970;5.892;2023-04-06T07:25:51;7.20;59.40
47338;DHT22;33069;51.970;5.892;2023-04-06T07:28:18;7.40;59.40
47338;DHT22;33069;51.970;5.892;2023-04-06T07:30:44;7.50;59.60
47338;DHT22;33069;51.970;5.892;2023-04-06T07:33:10;7.60;59.20
47338;DHT22;33069;51.970;5.892;2023-04-06T07:35:36;7.70;59.20
47338;DHT22;33069;51.970;5.892;2023-04-06T07:38:03;7.70;59.10
47338;DHT22;33069;51.970;5.892;2023-04-06T07:40:29;7.80;59.80
47338;DHT22;33069;51.970;5.892;2023-04-06T07:42:54;8.00;59.20
47338;DHT22;33069;51.970;5.892;2023-04-06T07:45:20;8.20;58.40
47338;DHT22;33069;51.970;5.892;2023-04-06T07:47:46;8.40;57.00
47338;DHT22;33069;51.970;5.892;2023-04-06T07:50:12;8.40;56.70
47338;DHT22;33069;51.970;5.892;2023-04-06T07:52:38;8.30;56.50
47338;DHT22;33069;51.970;5.892;2023-04-06T07:55:04;8.30;56.20
47338;DHT22;33069;51.970;5.892;2023-04-06T07:57:30;8.30;56.70
47338;DHT22;33069;51.970;5.892;2023-04-06T07:59:56;8.40;57.20
47338;DHT22;33069;51.970;5.892;2023-04-06T08:02:22;8.40;56.90
47338;DHT22;33069;51.970;5.892;2023-04-06T08:04:48;8.60;56.40
47338;DHT22;33069;51.970;5.892;2023-04-06T08:07:13;8.40;56.10
47338;DHT22;33069;51.970;5.892;2023-04-06T08:09:39;8.30;56.40
47338;DHT22;33069;51.970;5.892;2023-04-06T08:12:05;8.30;57.00
47338;DHT22;33069;51.970;5.892;2023-04-06T08:14:31;8.40;57.20
47338;DHT22;33069;51.970;5.892;2023-04-06T08:16:57;8.30;58.00
47338;DHT22;33069;51.970;5.892;2023-04-06T08:22:35;8.40;57.90
47338;DHT22;33069;51.970;5.892;2023-04-06T08:25:01;8.50;57.70
47338;DHT22;33069;51.970;5.892;2023-04-06T08:27:26;8.60;57.40
47338;DHT22;33069;51.970;5.892;2023-04-06T08:29:52;8.90;57.40
47338;DHT22;33069;51.970;5.892;2023-04-06T08:32:18;9.10;56.00
47338;DHT22;33069;51.970;5.892;2023-04-06T08:34:44;9.00;56.50
47338;DHT22;33069;51.970;5.892;2023-04-06T08:37:09;9.20;55.70
47338;DHT22;33069;51.970;5.892;2023-04-06T08:39:35;9.20;54.80
47338;DHT22;33069;51.970;5.892;2023-04-06T08:42:01;9.60;53.60
47338;DHT22;33069;51.970;5.892;2023-04-06T08:44:29;9.50;53.80
47338;DHT22;33069;51.970;5.892;2023-04-06T08:46:55;9.50;53.70
47338;DHT22;33069;51.970;5.892;2023-04-06T08:49:21;9.70;52.90
47338;DHT22;33069;51.970;5.892;2023-04-06T08:51:48;9.60;53.50
47338;DHT22;33069;51.970;5.892;2023-04-06T08:54:14;9.40;54.60
47338;DHT22;33069;51.970;5.892;2023-04-06T08:56:40;9.70;54.10
47338;DHT22;33069;51.970;5.892;2023-04-06T08:59:06;9.70;54.30
47338;DHT22;33069;51.970;5.892;2023-04-06T09:01:34;9.90;54.10
47338;DHT22;33069;51.970;5.892;2023-04-06T09:04:03;9.70;54.80
47338;DHT22;33069;51.970;5.892;2023-04-06T09:06:34;9.40;56.50
47338;DHT22;33069;51.970;5.892;2023-04-06T09:09:02;9.70;56.20
47338;DHT22;33069;51.970;5.892;2023-04-06T09:11:28;9.90;54.90
47338;DHT22;33069;51.970;5.892;2023-04-06T09:13:55;9.90;55.70
47338;DHT22;33069;51.970;5.892;2023-04-06T09:16:22;10.00;56.00
47338;DHT22;33069;51.970;5.892;2023-04-06T09:18:49;10.20;54.50
47338;DHT22;33069;51.970;5.892;2023-04-06T09:21:17;10.30;55.30
47338;DHT22;33069;51.970;5.892;2023-04-06T09:23:43;10.40;55.20
47338;DHT22;33069;51.970;5.892;2023-04-06T09:26:15;10.70;55.00
47338;DHT22;33069;51.970;5.892;2023-04-06T09:28:51;10.80;54.00
47338;DHT22;33069;51.970;5.892;2023-04-06T09:31:23;10.90;53.20
47338;DHT22;33069;51.970;5.892;2023-04-06T09:33:49;11.00;52.80
47338;DHT22;33069;51.970;5.892;2023-04-06T09:36:15;11.40;51.90
47338;DHT22;33069;51.970;5.892;2023-04-06T09:38:58;11.40;52.30
47338;DHT22;33069;51.970;5.892;2023-04-06T09:46:32;11.30;52.30
47338;DHT22;33069;51.970;5.892;2023-04-06T09:49:00;11.50;50.70
47338;DHT22;33069;51.970;5.892;2023-04-06T09:51:28;11.70;50.20
47338;DHT22;33069;51.970;5.892;2023-04-06T09:53:56;11.80;50.10
47338;DHT22;33069;51.970;5.892;2023-04-06T09:56:28;11.80;50.80
47338;DHT22;33069;51.970;5.892;2023-04-06T09:59:02;11.90;50.90
47338;DHT22;33069;51.970;5.892;2023-04-06T10:01:32;11.80;50.80
47338;DHT22;33069;51.970;5.892;2023-04-06T10:04:43;12.00;49.40
47338;DHT22;33069;51.970;5.892;2023-04-06T10:07:13;11.90;49.70
47338;DHT22;33069;51.970;5.892;2023-04-06T10:09:42;12.00;51.40
47338;DHT22;33069;51.970;5.892;2023-04-06T10:12:10;12.10;49.60
47338;DHT22;33069;51.970;5.892;2023-04-06T10:14:38;12.40;49.70
47338;DHT22;33069;51.970;5.892;2023-04-06T10:17:05;12.40;49.40
47338;DHT22;33069;51.970;5.892;2023-04-06T10:22:15;12.30;48.00
47338;DHT22;33069;51.970;5.892;2023-04-06T10:24:43;11.60;50.60
47338;DHT22;33069;51.970;5.892;2023-04-06T10:27:09;11.80;49.80
47338;DHT22;33069;51.970;5.892;2023-04-06T10:29:47;11.70;49.90
47338;DHT22;33069;51.970;5.892;2023-04-06T10:32:14;11.60;51.80
47338;DHT22;33069;51.970;5.892;2023-04-06T10:34:40;11.60;51.50
47338;DHT22;33069;51.970;5.892;2023-04-06T10:37:15;11.50;52.80
47338;DHT22;33069;51.970;5.892;2023-04-06T10:39:53;11.30;52.40
47338;DHT22;33069;51.970;5.892;2023-04-06T10:42:45;11.30;53.30
47338;DHT22;33069;51.970;5.892;2023-04-06T10:45:23;11.70;52.50
47338;DHT22;33069;51.970;5.892;2023-04-06T10:47:51;11.40;52.50
47338;DHT22;33069;51.970;5.892;2023-04-06T10:50:17;11.70;51.70
47338;DHT22;33069;51.970;5.892;2023-04-06T10:52:46;11.30;53.60
47338;DHT22;33069;51.970;5.892;2023-04-06T10:55:16;11.60;53.90
47338;DHT22;33069;51.970;5.892;2023-04-06T10:57:42;11.90;52.60
47338;DHT22;33069;51.970;5.892;2023-04-06T11:00:08;12.20;51.50
47338;DHT22;33069;51.970;5.892;2023-04-06T11:02:35;11.80;53.50
47338;DHT22;33069;51.970;5.892;2023-04-06T11:05:03;11.50;54.10
47338;DHT22;33069;51.970;5.892;2023-04-06T11:07:29;11.70;54.80
47338;DHT22;33069;51.970;5.892;2023-04-06T11:09:56;12.10;52.80
47338;DHT22;33069;51.970;5.892;2023-04-06T11:12:27;11.50;54.70
47338;DHT22;33069;51.970;5.892;2023-04-06T11:14:57;11.80;54.60
47338;DHT22;33069;51.970;5.892;2023-04-06T11:17:31;11.80;55.20
47338;DHT22;33069;51.970;5.892;2023-04-06T11:19:57;12.00;54.40
47338;DHT22;33069;51.970;5.892;2023-04-06T11:22:24;12.40;53.50
47338;DHT22;33069;51.970;5.892;2023-04-06T11:24:50;11.90;55.70
47338;DHT22;33069;51.970;5.892;2023-04-06T11:27:16;12.20;54.20
47338;DHT22;33069;51.970;5.892;2023-04-06T11:29:43;12.20;54.80
47338;DHT22;33069;51.970;5.892;2023-04-06T11:32:09;12.20;55.00
47338;DHT22;33069;51.970;5.892;2023-04-06T11:34:36;12.40;54.90
47338;DHT22;33069;51.970;5.892;2023-04-06T11:37:07;12.20;56.90
47338;DHT22;33069;51.970;5.892;2023-04-06T11:39:39;12.20;55.90
47338;DHT22;33069;51.970;5.892;2023-04-06T11:42:08;12.30;57.10
47338;DHT22;33069;51.970;5.892;2023-04-06T11:44:35;11.70;57.70
47338;DHT22;33069;51.970;5.892;2023-04-06T11:47:02;11.80;58.70
47338;DHT22;33069;51.970;5.892;2023-04-06T11:49:29;11.70;59.40
47338;DHT22;33069;51.970;5.892;2023-04-06T11:51:56;11.50;60.10
47338;DHT22;33069;51.970;5.892;2023-04-06T11:54:35;11.40;61.70
47338;DHT22;33069;51.970;5.892;2023-04-06T11:57:02;11.30;61.80
47338;DHT22;33069;51.970;5.892;2023-04-06T11:59:28;11.40;61.80
47338;DHT22;33069;51.970;5.892;2023-04-06T12:01:56;11.30;63.70
47338;DHT22;33069;51.970;5.892;2023-04-06T12:04:22;11.10;64.30
47338;DHT22;33069;51.970;5.892;2023-04-06T12:06:48;11.30;64.50
47338;DHT22;33069;51.970;5.892;2023-04-06T12:09:14;11.30;65.20
47338;DHT22;33069;51.970;5.892;2023-04-06T12:11:39;11.10;64.70
47338;DHT22;33069;51.970;5.892;2023-04-06T12:14:06;11.20;62.90
47338;DHT22;33069;51.970;5.892;2023-04-06T12:16:36;10.80;64.90
47338;DHT22;33069;51.970;5.892;2023-04-06T12:19:02;10.70;65.90
47338;DHT22;33069;51.970;5.892;2023-04-06T12:21:28;10.70;66.50
47338;DHT22;33069;51.970;5.892;2023-04-06T12:23:56;10.40;65.50
47338;DHT22;33069;51.970;5.892;2023-04-06T12:26:22;10.30;67.20
47338;DHT22;33069;51.970;5.892;2023-04-06T12:28:48;10.40;67.60
47338;DHT22;33069;51.970;5.892;2023-04-06T12:31:17;10.20;68.40
47338;DHT22;33069;51.970;5.892;2023-04-06T12:34:14;10.40;68.70
47338;DHT22;33069;51.970;5.892;2023-04-06T12:36:40;10.00;67.90
47338;DHT22;33069;51.970;5.892;2023-04-06T12:39:06;10.00;69.50
47338;DHT22;33069;51.970;5.892;2023-04-06T12:41:32;10.00;69.80
47338;DHT22;33069;51.970;5.892;2023-04-06T12:43:58;9.90;69.70
47338;DHT22;33069;51.970;5.892;2023-04-06T12:46:24;9.80;69.30
47338;DHT22;33069;51.970;5.892;2023-04-06T12:48:51;9.70;69.90
47338;DHT22;33069;51.970;5.892;2023-04-06T12:51:19;9.90;70.10
47338;DHT22;33069;51.970;5.892;2023-04-06T12:53:45;10.20;69.90
47338;DHT22;33069;51.970;5.892;2023-04-06T12:56:15;9.90;70.20
47338;DHT22;33069;51.970;5.892;2023-04-06T12:58:43;9.80;70.80
47338;DHT22;33069;51.970;5.892;2023-04-06T13:01:09;9.70;71.60
47338;DHT22;33069;51.970;5.892;2023-04-06T13:03:35;9.70;72.10
47338;DHT22;33069;51.970;5.892;2023-04-06T13:09:17;10.00;71.50
47338;DHT22;33069;51.970;5.892;2023-04-06T13:11:43;10.00;71.20
47338;DHT22;33069;51.970;5.892;2023-04-06T13:14:09;10.10;71.50
47338;DHT22;33069;51.970;5.892;2023-04-06T13:16:35;9.70;71.70
47338;DHT22;33069;51.970;5.892;2023-04-06T13:19:01;9.60;73.00
47338;DHT22;33069;51.970;5.892;2023-04-06T13:21:28;9.40;74.10
47338;DHT22;33069;51.970;5.892;2023-04-06T13:23:53;9.40;75.00
47338;DHT22;33069;51.970;5.892;2023-04-06T13:26:19;9.40;74.90
47338;DHT22;33069;51.970;5.892;2023-04-06T13:28:45;9.20;74.90
47338;DHT22;33069;51.970;5.892;2023-04-06T13:31:11;9.10;75.40
47338;DHT22;33069;51.970;5.892;2023-04-06T13:33:36;9.10;75.90
47338;DHT22;33069;51.970;5.892;2023-04-06T13:36:03;9.20;75.90
47338;DHT22;33069;51.970;5.892;2023-04-06T13:38:29;9.10;75.30
47338;DHT22;33069;51.970;5.892;2023-04-06T13:40:55;9.00;76.10
47338;DHT22;33069;51.970;5.892;2023-04-06T13:43:21;8.90;76.50
47338;DHT22;33069;51.970;5.892;2023-04-06T13:45:52;8.90;77.00
47338;DHT22;33069;51.970;5.892;2023-04-06T13:48:19;8.90;77.30
47338;DHT22;33069;51.970;5.892;2023-04-06T13:50:44;8.90;77.10
47338;DHT22;33069;51.970;5.892;2023-04-06T13:53:11;8.80;77.20
47338;DHT22;33069;51.970;5.892;2023-04-06T13:58:59;8.80;78.30
47338;DHT22;33069;51.970;5.892;2023-04-06T14:01:25;8.80;78.30
47338;DHT22;33069;51.970;5.892;2023-04-06T14:03:52;8.80;78.90
47338;DHT22;33069;51.970;5.892;2023-04-06T14:06:17;8.90;78.90
47338;DHT22;33069;51.970;5.892;2023-04-06T14:08:43;8.90;78.60
47338;DHT22;33069;51.970;5.892;2023-04-06T14:11:13;8.90;78.90
47338;DHT22;33069;51.970;5.892;2023-04-06T14:13:39;8.90;79.40
47338;DHT22;33069;51.970;5.892;2023-04-06T14:16:06;9.00;79.30
47338;DHT22;33069;51.970;5.892;2023-04-06T14:18:32;8.90;79.60
47338;DHT22;33069;51.970;5.892;2023-04-06T14:20:59;9.00;79.70
47338;DHT22;33069;51.970;5.892;2023-04-06T14:23:29;8.90;79.50
47338;DHT22;33069;51.970;5.892;2023-04-06T14:26:05;8.90;79.70
47338;DHT22;33069;51.970;5.892;2023-04-06T14:28:35;8.80;79.50
47338;DHT22;33069;51.970;5.892;2023-04-06T14:31:08;8.70;79.70
47338;DHT22;33069;51.970;5.892;2023-04-06T14:33:34;8.80;80.10
47338;DHT22;33069;51.970;5.892;2023-04-06T14:36:03;8.70;80.40
47338;DHT22;33069;51.970;5.892;2023-04-06T14:38:29;8.70;80.40
47338;DHT22;33069;51.970;5.892;2023-04-06T14:40:55;8.70;80.70
47338;DHT22;33069;51.970;5.892;2023-04-06T14:43:21;8.70;80.80
47338;DHT22;33069;51.970;5.892;2023-04-06T14:45:47;8.80;80.90
47338;DHT22;33069;51.970;5.892;2023-04-06T14:48:13;8.60;80.90
47338;DHT22;33069;51.970;5.892;2023-04-06T14:50:41;8.70;81.20
47338;DHT22;33069;51.970;5.892;2023-04-06T14:53:11;8.80;81.20
47338;DHT22;33069;51.970;5.892;2023-04-06T14:55:40;8.90;81.00
47338;DHT22;33069;51.970;5.892;2023-04-06T14:58:06;8.80;80.80
47338;DHT22;33069;51.970;5.892;2023-04-06T15:00:32;8.80;81.00
47338;DHT22;33069;51.970;5.892;2023-04-06T15:02:58;8.80;81.10
47338;DHT22;33069;51.970;5.892;2023-04-06T15:05:23;8.80;81.40
47338;DHT22;33069;51.970;5.892;2023-04-06T15:07:50;8.70;81.50
47338;DHT22;33069;51.970;5.892;2023-04-06T15:10:16;8.60;82.00
47338;DHT22;33069;51.970;5.892;2023-04-06T15:12:42;8.60;82.00
47338;DHT22;33069;51.970;5.892;2023-04-06T15:15:08;8.60;81.60
47338;DHT22;33069;51.970;5.892;2023-04-06T15:17:34;8.70;81.90
47338;DHT22;33069;51.970;5.892;2023-04-06T15:19:59;8.80;81.90
47338;DHT22;33069;51.970;5.892;2023-04-06T15:22:25;8.60;81.80
47338;DHT22;33069;51.970;5.892;2023-04-06T15:24:51;8.50;82.00
47338;DHT22;33069;51.970;5.892;2023-04-06T15:27:16;8.50;82.10
47338;DHT22;33069;51.970;5.892;2023-04-06T15:29:42;8.50;82.50
47338;DHT22;33069;51.970;5.892;2023-04-06T15:32:09;8.50;82.80
47338;DHT22;33069;51.970;5.892;2023-04-06T15:34:35;8.40;82.80
47338;DHT22;33069;51.970;5.892;2023-04-06T15:37:01;8.30;82.90
47338;DHT22;33069;51.970;5.892;2023-04-06T15:39:27;8.30;83.20
47338;DHT22;33069;51.970;5.892;2023-04-06T15:41:53;8.30;83.20
47338;DHT22;33069;51.970;5.892;2023-04-06T15:44:21;8.30;83.40
47338;DHT22;33069;51.970;5.892;2023-04-06T15:46:47;8.30;83.60
47338;DHT22;33069;51.970;5.892;2023-04-06T15:49:12;8.30;83.80
47338;DHT22;33069;51.970;5.892;2023-04-06T15:51:38;8.20;83.80
47338;DHT22;33069;51.970;5.892;2023-04-06T15:54:04;8.20;84.20
47338;DHT22;33069;51.970;5.892;2023-04-06T15:56:31;8.20;84.30
47338;DHT22;33069;51.970;5.892;2023-04-06T15:58:57;8.30;84.60